sensor_id;sensor_type;location;lat;lon;timestamp;P1;durP1;ratioP1;P2;durP2;ratioP2
39344;SDS011;25061;51.954;6.996;2023-04-24T04:30:48;18.85;;;9.25;;
39344;SDS011;25061;51.954;6.996;2023-04-24T04:33:15;18.98;;;10.13;;
39344;SDS011;25061;51.954;6.996;2023-04-24T04:35:41;16.83;;;9.38;;
39344;SDS011;25061;51.954;6.996;2023-04-24T04:38:07;19.98;;;9.63;;
39344;SDS011;25061;51.954;6.996;2023-04-24T04:40:33;18.92;;;9.32;;
39344;SDS011;25061;51.954;6.996;2023-04-24T04:42:58;18.35;;;9.30;;
39344;SDS011;25061;51.954;6.996;2023-04-24T04:45:24;19.58;;;10.45;;
39344;SDS011;25061;51.954;6.996;2023-04-24T04:47:52;19.48;;;9.50;;
39344;SDS011;25061;51.954;6.996;2023-04-24T04:50:18;17.25;;;9.40;;
39344;SDS011;25061;51.954;6.996;2023-04-24T04:52:46;18.15;;;9.43;;
39344;SDS011;25061;51.954;6.996;2023-04-24T04:55:14;21.85;;;10.43;;
39344;SDS011;25061;51.954;6.996;2023-04-24T04:57:41;18.15;;;10.05;;
39344;SDS011;25061;51.954;6.996;2023-04-24T05:00:10;18.40;;;9.48;;
39344;SDS011;25061;51.954;6.996;2023-04-24T05:02:36;19.55;;;9.30;;
39344;SDS011;25061;51.954;6.996;2023-04-24T05:05:02;17.42;;;9.73;;
39344;SDS011;25061;51.954;6.996;2023-04-24T05:07:28;17.45;;;9.35;;
39344;SDS011;25061;51.954;6.996;2023-04-24T05:09:53;18.88;;;9.73;;
39344;SDS011;25061;51.954;6.996;2023-04-24T05:12:19;19.05;;;9.68;;
39344;SDS011;25061;51.954;6.996;2023-04-24T05:14:44;19.20;;;9.65;;
39344;SDS011;25061;51.954;6.996;2023-04-24T05:17:13;16.55;;;8.68;;
39344;SDS011;25061;51.954;6.996;2023-04-24T05:19:39;23.85;;;10.90;;
39344;SDS011;25061;51.954;6.996;2023-04-24T05:22:04;15.63;;;9.00;;
39344;SDS011;25061;51.954;6.996;2023-04-24T05:24:35;15.88;;;8.88;;
39344;SDS011;25061;51.954;6.996;2023-04-24T05:27:04;16.98;;;8.88;;
39344;SDS011;25061;51.954;6.996;2023-04-24T05:29:31;19.05;;;8.95;;
39344;SDS011;25061;51.954;6.996;2023-04-24T05:31:58;16.23;;;8.88;;
39344;SDS011;25061;51.954;6.996;2023-04-24T05:34:26;19.10;;;9.10;;
39344;SDS011;25061;51.954;6.996;2023-04-24T05:36:51;17.90;;;9.15;;
39344;SDS011;25061;51.954;6.996;2023-04-24T05:39:19;18.35;;;9.52;;
39344;SDS011;25061;51.954;6.996;2023-04-24T05:41:45;17.88;;;9.13;;
39344;SDS011;25061;51.954;6.996;2023-04-24T05:44:13;16.45;;;8.20;;
39344;SDS011;25061;51.954;6.996;2023-04-24T05:46:39;15.00;;;9.23;;
39344;SDS011;25061;51.954;6.996;2023-04-24T05:49:05;14.82;;;8.20;;
39344;SDS011;25061;51.954;6.996;2023-04-24T05:51:31;17.98;;;8.52;;
39344;SDS011;25061;51.954;6.996;2023-04-24T05:53:57;16.80;;;9.18;;
39344;SDS011;25061;51.954;6.996;2023-04-24T05:56:22;14.75;;;8.50;;
39344;SDS011;25061;51.954;6.996;2023-04-24T05:58:48;19.10;;;9.05;;
39344;SDS011;25061;51.954;6.996;2023-04-24T06:01:14;16.73;;;9.15;;
39344;SDS011;25061;51.954;6.996;2023-04-24T06:03:41;16.02;;;8.65;;
39344;SDS011;25061;51.954;6.996;2023-04-24T06:06:07;16.20;;;8.27;;
39344;SDS011;25061;51.954;6.996;2023-04-24T06:08:34;14.75;;;8.02;;
39344;SDS011;25061;51.954;6.996;2023-04-24T06:11:00;13.40;;;7.60;;
39344;SDS011;25061;51.954;6.996;2023-04-24T06:13:26;13.60;;;7.13;;
39344;SDS011;25061;51.954;6.996;2023-04-24T06:15:52;14.20;;;7.60;;
39344;SDS011;25061;51.954;6.996;2023-04-24T06:18:18;13.10;;;7.28;;
39344;SDS011;25061;51.954;6.996;2023-04-24T06:20:44;13.40;;;6.95;;
39344;SDS011;25061;51.954;6.996;2023-04-24T06:23:10;14.25;;;7.43;;
39344;SDS011;25061;51.954;6.996;2023-04-24T06:25:36;12.63;;;7.15;;
39344;SDS011;25061;51.954;6.996;2023-04-24T06:28:05;14.18;;;6.78;;
39344;SDS011;25061;51.954;6.996;2023-04-24T06:30:31;11.70;;;6.43;;
39344;SDS011;25061;51.954;6.996;2023-04-24T06:32:56;11.93;;;6.20;;
39344;SDS011;25061;51.954;6.996;2023-04-24T06:35:22;14.50;;;7.22;;
39344;SDS011;25061;51.954;6.996;2023-04-24T06:37:49;12.98;;;5.95;;
39344;SDS011;25061;51.954;6.996;2023-04-24T06:40:15;14.07;;;6.40;;
39344;SDS011;25061;51.954;6.996;2023-04-24T06:42:40;11.73;;;6.22;;
39344;SDS011;25061;51.954;6.996;2023-04-24T06:45:07;12.90;;;6.35;;
39344;SDS011;25061;51.954;6.996;2023-04-24T06:47:33;12.20;;;6.10;;
39344;SDS011;25061;51.954;6.996;2023-04-24T06:50:00;11.05;;;5.28;;
39344;SDS011;25061;51.954;6.996;2023-04-24T06:52:25;11.82;;;6.10;;
39344;SDS011;25061;51.954;6.996;2023-04-24T06:54:52;11.00;;;5.93;;
39344;SDS011;25061;51.954;6.996;2023-04-24T06:57:24;12.23;;;6.32;;
39344;SDS011;25061;51.954;6.996;2023-04-24T06:59:50;9.98;;;5.13;;
39344;SDS011;25061;51.954;6.996;2023-04-24T07:02:15;9.05;;;4.75;;
39344;SDS011;25061;51.954;6.996;2023-04-24T07:04:42;9.70;;;5.45;;
39344;SDS011;25061;51.954;6.996;2023-04-24T07:07:12;10.85;;;5.38;;
39344;SDS011;25061;51.954;6.996;2023-04-24T07:09:40;11.10;;;5.88;;
39344;SDS011;25061;51.954;6.996;2023-04-24T07:12:10;10.65;;;5.60;;
39344;SDS011;25061;51.954;6.996;2023-04-24T07:14:36;10.10;;;5.30;;
39344;SDS011;25061;51.954;6.996;2023-04-24T07:17:05;10.38;;;5.20;;
39344;SDS011;25061;51.954;6.996;2023-04-24T07:19:33;12.48;;;5.68;;
39344;SDS011;25061;51.954;6.996;2023-04-24T07:22:00;14.52;;;5.40;;
39344;SDS011;25061;51.954;6.996;2023-04-24T07:24:26;9.88;;;5.05;;
39344;SDS011;25061;51.954;6.996;2023-04-24T07:26:52;11.13;;;5.88;;
39344;SDS011;25061;51.954;6.996;2023-04-24T07:29:19;11.07;;;5.53;;
39344;SDS011;25061;51.954;6.996;2023-04-24T07:31:47;9.52;;;4.90;;
39344;SDS011;25061;51.954;6.996;2023-04-24T07:34:13;10.70;;;5.40;;
39344;SDS011;25061;51.954;6.996;2023-04-24T07:36:38;9.70;;;4.95;;
39344;SDS011;25061;51.954;6.996;2023-04-24T07:39:06;10.68;;;5.30;;
39344;SDS011;25061;51.954;6.996;2023-04-24T07:41:33;9.43;;;4.90;;
39344;SDS011;25061;51.954;6.996;2023-04-24T07:43:59;9.55;;;4.60;;
39344;SDS011;25061;51.954;6.996;2023-04-24T07:46:28;9.80;;;5.13;;
39344;SDS011;25061;51.954;6.996;2023-04-24T07:48:56;9.85;;;4.55;;
39344;SDS011;25061;51.954;6.996;2023-04-24T07:51:21;9.75;;;4.70;;
39344;SDS011;25061;51.954;6.996;2023-04-24T07:53:47;8.88;;;4.82;;
39344;SDS011;25061;51.954;6.996;2023-04-24T07:58:45;11.02;;;5.00;;
39344;SDS011;25061;51.954;6.996;2023-04-24T08:01:11;9.38;;;5.00;;
39344;SDS011;25061;51.954;6.996;2023-04-24T08:03:37;8.73;;;4.00;;
39344;SDS011;25061;51.954;6.996;2023-04-24T08:06:02;8.60;;;4.35;;
39344;SDS011;25061;51.954;6.996;2023-04-24T08:08:29;8.55;;;4.03;;
39344;SDS011;25061;51.954;6.996;2023-04-24T08:10:55;8.93;;;3.78;;
39344;SDS011;25061;51.954;6.996;2023-04-24T08:13:21;13.80;;;6.03;;
39344;SDS011;25061;51.954;6.996;2023-04-24T08:15:50;8.85;;;4.30;;
39344;SDS011;25061;51.954;6.996;2023-04-24T08:18:15;7.97;;;3.83;;
39344;SDS011;25061;51.954;6.996;2023-04-24T08:20:50;7.57;;;3.70;;
39344;SDS011;25061;51.954;6.996;2023-04-24T08:23:26;8.45;;;4.15;;
39344;SDS011;25061;51.954;6.996;2023-04-24T08:25:52;8.15;;;4.43;;
39344;SDS011;25061;51.954;6.996;2023-04-24T08:28:19;9.27;;;4.32;;
39344;SDS011;25061;51.954;6.996;2023-04-24T08:30:45;8.80;;;3.97;;
39344;SDS011;25061;51.954;6.996;2023-04-24T08:33:12;8.75;;;4.00;;
39344;SDS011;25061;51.954;6.996;2023-04-24T08:35:40;7.65;;;3.60;;
39344;SDS011;25061;51.954;6.996;2023-04-24T08:38:05;7.90;;;3.40;;
39344;SDS011;25061;51.954;6.996;2023-04-24T08:40:32;7.10;;;3.50;;
39344;SDS011;25061;51.954;6.996;2023-04-24T08:43:04;6.65;;;3.13;;
39344;SDS011;25061;51.954;6.996;2023-04-24T08:45:30;7.10;;;3.28;;
39344;SDS011;25061;51.954;6.996;2023-04-24T08:47:58;7.55;;;3.03;;
39344;SDS011;25061;51.954;6.996;2023-04-24T08:50:24;5.75;;;2.75;;
39344;SDS011;25061;51.954;6.996;2023-04-24T08:52:51;6.72;;;3.60;;
39344;SDS011;25061;51.954;6.996;2023-04-24T08:55:19;6.80;;;3.40;;
39344;SDS011;25061;51.954;6.996;2023-04-24T08:57:46;8.27;;;3.65;;
39344;SDS011;25061;51.954;6.996;2023-04-24T09:00:16;7.90;;;3.40;;
39344;SDS011;25061;51.954;6.996;2023-04-24T09:02:43;7.63;;;3.25;;
39344;SDS011;25061;51.954;6.996;2023-04-24T09:05:10;7.28;;;3.33;;
39344;SDS011;25061;51.954;6.996;2023-04-24T09:07:36;8.80;;;3.80;;
39344;SDS011;25061;51.954;6.996;2023-04-24T09:10:06;7.63;;;3.70;;
39344;SDS011;25061;51.954;6.996;2023-04-24T09:12:34;8.52;;;3.80;;
39344;SDS011;25061;51.954;6.996;2023-04-24T09:15:00;7.43;;;3.40;;
39344;SDS011;25061;51.954;6.996;2023-04-24T09:17:30;8.43;;;3.50;;
39344;SDS011;25061;51.954;6.996;2023-04-24T09:19:57;8.63;;;3.88;;
39344;SDS011;25061;51.954;6.996;2023-04-24T09:22:22;9.30;;;4.20;;
39344;SDS011;25061;51.954;6.996;2023-04-24T09:24:48;10.25;;;4.45;;
39344;SDS011;25061;51.954;6.996;2023-04-24T09:27:28;8.07;;;3.92;;
39344;SDS011;25061;51.954;6.996;2023-04-24T09:29:54;10.25;;;4.32;;
39344;SDS011;25061;51.954;6.996;2023-04-24T09:32:21;7.07;;;3.47;;
39344;SDS011;25061;51.954;6.996;2023-04-24T09:34:47;6.57;;;2.75;;
39344;SDS011;25061;51.954;6.996;2023-04-24T09:37:29;6.57;;;2.63;;
39344;SDS011;25061;51.954;6.996;2023-04-24T09:40:17;6.30;;;2.80;;
39344;SDS011;25061;51.954;6.996;2023-04-24T09:42:44;6.55;;;2.42;;
39344;SDS011;25061;51.954;6.996;2023-04-24T09:45:22;5.60;;;2.30;;
39344;SDS011;25061;51.954;6.996;2023-04-24T09:47:53;9.70;;;3.50;;
39344;SDS011;25061;51.954;6.996;2023-04-24T09:50:20;6.97;;;2.85;;
39344;SDS011;25061;51.954;6.996;2023-04-24T09:52:47;9.05;;;3.33;;
39344;SDS011;25061;51.954;6.996;2023-04-24T09:55:22;7.38;;;3.10;;
39344;SDS011;25061;51.954;6.996;2023-04-24T09:57:51;6.95;;;3.00;;
39344;SDS011;25061;51.954;6.996;2023-04-24T10:00:22;10.35;;;3.60;;
39344;SDS011;25061;51.954;6.996;2023-04-24T10:02:56;8.15;;;3.35;;
39344;SDS011;25061;51.954;6.996;2023-04-24T10:05:36;9.50;;;3.90;;
39344;SDS011;25061;51.954;6.996;2023-04-24T10:08:04;9.15;;;3.72;;
39344;SDS011;25061;51.954;6.996;2023-04-24T10:10:38;8.40;;;4.18;;
39344;SDS011;25061;51.954;6.996;2023-04-24T10:13:09;9.55;;;4.00;;
39344;SDS011;25061;51.954;6.996;2023-04-24T10:15:36;9.98;;;4.18;;
39344;SDS011;25061;51.954;6.996;2023-04-24T10:18:03;10.23;;;3.97;;
39344;SDS011;25061;51.954;6.996;2023-04-24T10:20:31;8.10;;;3.67;;
39344;SDS011;25061;51.954;6.996;2023-04-24T10:22:59;10.43;;;3.88;;
39344;SDS011;25061;51.954;6.996;2023-04-24T10:25:27;9.82;;;3.92;;
39344;SDS011;25061;51.954;6.996;2023-04-24T10:27:57;9.75;;;4.47;;
39344;SDS011;25061;51.954;6.996;2023-04-24T10:30:25;11.90;;;4.47;;
39344;SDS011;25061;51.954;6.996;2023-04-24T10:32:55;12.70;;;4.57;;
39344;SDS011;25061;51.954;6.996;2023-04-24T10:35:21;9.73;;;4.15;;
39344;SDS011;25061;51.954;6.996;2023-04-24T10:37:51;10.73;;;4.30;;
39344;SDS011;25061;51.954;6.996;2023-04-24T10:40:29;10.52;;;4.63;;
39344;SDS011;25061;51.954;6.996;2023-04-24T10:42:57;7.35;;;3.30;;
39344;SDS011;25061;51.954;6.996;2023-04-24T10:45:23;9.50;;;3.95;;
39344;SDS011;25061;51.954;6.996;2023-04-24T10:47:59;12.02;;;5.22;;
39344;SDS011;25061;51.954;6.996;2023-04-24T10:53:16;8.45;;;2.60;;
39344;SDS011;25061;51.954;6.996;2023-04-24T10:55:50;8.68;;;2.60;;
39344;SDS011;25061;51.954;6.996;2023-04-24T10:58:18;10.82;;;3.10;;
39344;SDS011;25061;51.954;6.996;2023-04-24T11:00:57;10.45;;;2.78;;
39344;SDS011;25061;51.954;6.996;2023-04-24T11:03:28;7.00;;;2.63;;
39344;SDS011;25061;51.954;6.996;2023-04-24T11:05:59;10.27;;;3.90;;
39344;SDS011;25061;51.954;6.996;2023-04-24T11:08:29;12.77;;;4.25;;
39344;SDS011;25061;51.954;6.996;2023-04-24T11:10:56;12.10;;;3.33;;
39344;SDS011;25061;51.954;6.996;2023-04-24T11:13:24;14.88;;;4.70;;
39344;SDS011;25061;51.954;6.996;2023-04-24T11:16:11;11.82;;;3.00;;
39344;SDS011;25061;51.954;6.996;2023-04-24T11:18:51;7.53;;;2.40;;
39344;SDS011;25061;51.954;6.996;2023-04-24T11:21:22;7.78;;;2.40;;
39344;SDS011;25061;51.954;6.996;2023-04-24T11:23:47;8.73;;;2.80;;
39344;SDS011;25061;51.954;6.996;2023-04-24T11:26:21;13.07;;;2.80;;
39344;SDS011;25061;51.954;6.996;2023-04-24T11:28:55;8.85;;;3.00;;
39344;SDS011;25061;51.954;6.996;2023-04-24T11:31:37;9.90;;;2.80;;
39344;SDS011;25061;51.954;6.996;2023-04-24T11:34:10;7.97;;;2.85;;
39344;SDS011;25061;51.954;6.996;2023-04-24T11:36:46;9.13;;;2.92;;
39344;SDS011;25061;51.954;6.996;2023-04-24T11:39:13;10.50;;;2.72;;
39344;SDS011;25061;51.954;6.996;2023-04-24T11:41:39;10.18;;;2.78;;
39344;SDS011;25061;51.954;6.996;2023-04-24T11:44:11;11.10;;;2.85;;
39344;SDS011;25061;51.954;6.996;2023-04-24T11:46:38;11.52;;;3.45;;
39344;SDS011;25061;51.954;6.996;2023-04-24T11:49:05;13.13;;;2.70;;
39344;SDS011;25061;51.954;6.996;2023-04-24T11:51:30;9.48;;;2.80;;
39344;SDS011;25061;51.954;6.996;2023-04-24T11:53:58;8.82;;;3.15;;
39344;SDS011;25061;51.954;6.996;2023-04-24T11:56:24;10.18;;;3.05;;
39344;SDS011;25061;51.954;6.996;2023-04-24T11:58:56;11.90;;;3.72;;
39344;SDS011;25061;51.954;6.996;2023-04-24T12:01:21;9.50;;;3.17;;
39344;SDS011;25061;51.954;6.996;2023-04-24T12:03:48;7.80;;;2.65;;
39344;SDS011;25061;51.954;6.996;2023-04-24T12:06:17;14.85;;;3.58;;
39344;SDS011;25061;51.954;6.996;2023-04-24T12:08:45;10.02;;;2.75;;
39344;SDS011;25061;51.954;6.996;2023-04-24T12:11:14;7.88;;;2.10;;
39344;SDS011;25061;51.954;6.996;2023-04-24T12:13:45;11.35;;;2.30;;
39344;SDS011;25061;51.954;6.996;2023-04-24T12:16:11;8.75;;;2.20;;
39344;SDS011;25061;51.954;6.996;2023-04-24T12:18:44;10.57;;;2.30;;
39344;SDS011;25061;51.954;6.996;2023-04-24T12:21:19;9.77;;;2.42;;
39344;SDS011;25061;51.954;6.996;2023-04-24T12:23:54;8.57;;;2.13;;
39344;SDS011;25061;51.954;6.996;2023-04-24T12:26:20;8.65;;;2.38;;
39344;SDS011;25061;51.954;6.996;2023-04-24T12:28:48;11.60;;;2.47;;
39344;SDS011;25061;51.954;6.996;2023-04-24T12:31:16;9.98;;;2.70;;
39344;SDS011;25061;51.954;6.996;2023-04-24T12:33:42;12.05;;;2.90;;
39344;SDS011;25061;51.954;6.996;2023-04-24T12:36:11;8.65;;;2.22;;
39344;SDS011;25061;51.954;6.996;2023-04-24T12:38:38;7.88;;;2.35;;
39344;SDS011;25061;51.954;6.996;2023-04-24T12:41:09;9.37;;;2.60;;
39344;SDS011;25061;51.954;6.996;2023-04-24T12:43:49;5.47;;;1.83;;
39344;SDS011;25061;51.954;6.996;2023-04-24T12:46:18;6.25;;;2.00;;
39344;SDS011;25061;51.954;6.996;2023-04-24T12:48:45;8.25;;;2.10;;
39344;SDS011;25061;51.954;6.996;2023-04-24T12:51:11;6.60;;;1.73;;
39344;SDS011;25061;51.954;6.996;2023-04-24T12:53:36;5.15;;;1.50;;
39344;SDS011;25061;51.954;6.996;2023-04-24T12:56:02;6.20;;;1.40;;
39344;SDS011;25061;51.954;6.996;2023-04-24T12:58:28;6.47;;;1.13;;
39344;SDS011;25061;51.954;6.996;2023-04-24T13:00:55;5.63;;;1.45;;
39344;SDS011;25061;51.954;6.996;2023-04-24T13:03:21;5.05;;;1.52;;
39344;SDS011;25061;51.954;6.996;2023-04-24T13:05:47;6.65;;;2.15;;
39344;SDS011;25061;51.954;6.996;2023-04-24T13:08:13;6.15;;;1.25;;
39344;SDS011;25061;51.954;6.996;2023-04-24T13:10:39;4.95;;;1.50;;
39344;SDS011;25061;51.954;6.996;2023-04-24T13:13:05;4.93;;;1.50;;
39344;SDS011;25061;51.954;6.996;2023-04-24T13:15:32;5.03;;;1.20;;
39344;SDS011;25061;51.954;6.996;2023-04-24T13:17:57;4.70;;;1.40;;
39344;SDS011;25061;51.954;6.996;2023-04-24T13:20:24;4.45;;;1.10;;
39344;SDS011;25061;51.954;6.996;2023-04-24T13:22:51;3.65;;;1.13;;
39344;SDS011;25061;51.954;6.996;2023-04-24T13:25:16;2.53;;;0.90;;
39344;SDS011;25061;51.954;6.996;2023-04-24T13:27:45;4.03;;;0.90;;
39344;SDS011;25061;51.954;6.996;2023-04-24T13:30:11;5.00;;;0.90;;
39344;SDS011;25061;51.954;6.996;2023-04-24T13:32:43;6.85;;;1.30;;
39344;SDS011;25061;51.954;6.996;2023-04-24T13:35:09;4.22;;;1.20;;
39344;SDS011;25061;51.954;6.996;2023-04-24T13:37:34;5.18;;;1.20;;
39344;SDS011;25061;51.954;6.996;2023-04-24T13:40:01;2.38;;;0.80;;
39344;SDS011;25061;51.954;6.996;2023-04-24T13:42:27;2.80;;;1.10;;
39344;SDS011;25061;51.954;6.996;2023-04-24T13:44:53;5.35;;;1.10;;
39344;SDS011;25061;51.954;6.996;2023-04-24T13:47:19;3.58;;;0.98;;
39344;SDS011;25061;51.954;6.996;2023-04-24T13:49:44;5.85;;;1.08;;
39344;SDS011;25061;51.954;6.996;2023-04-24T13:52:19;5.63;;;1.27;;
39344;SDS011;25061;51.954;6.996;2023-04-24T13:54:45;2.50;;;1.10;;
39344;SDS011;25061;51.954;6.996;2023-04-24T13:57:10;5.07;;;1.23;;
39344;SDS011;25061;51.954;6.996;2023-04-24T13:59:37;5.30;;;1.10;;
39344;SDS011;25061;51.954;6.996;2023-04-24T14:02:03;5.88;;;1.02;;
39344;SDS011;25061;51.954;6.996;2023-04-24T14:04:29;7.10;;;1.50;;
39344;SDS011;25061;51.954;6.996;2023-04-24T14:06:55;5.55;;;1.10;;
39344;SDS011;25061;51.954;6.996;2023-04-24T14:09:21;5.93;;;1.20;;
39344;SDS011;25061;51.954;6.996;2023-04-24T14:11:47;3.30;;;0.98;;
39344;SDS011;25061;51.954;6.996;2023-04-24T14:14:13;4.85;;;1.05;;
39344;SDS011;25061;51.954;6.996;2023-04-24T14:16:40;7.22;;;1.00;;
39344;SDS011;25061;51.954;6.996;2023-04-24T14:19:07;2.95;;;1.00;;
39344;SDS011;25061;51.954;6.996;2023-04-24T14:21:34;3.92;;;1.23;;
39344;SDS011;25061;51.954;6.996;2023-04-24T14:24:01;5.95;;;1.20;;
39344;SDS011;25061;51.954;6.996;2023-04-24T14:26:31;6.32;;;1.20;;
39344;SDS011;25061;51.954;6.996;2023-04-24T14:28:57;4.40;;;1.00;;
39344;SDS011;25061;51.954;6.996;2023-04-24T14:31:23;4.60;;;1.48;;
39344;SDS011;25061;51.954;6.996;2023-04-24T14:33:49;3.45;;;1.00;;
39344;SDS011;25061;51.954;6.996;2023-04-24T14:36:15;9.13;;;1.50;;
39344;SDS011;25061;51.954;6.996;2023-04-24T14:38:40;3.28;;;1.15;;
39344;SDS011;25061;51.954;6.996;2023-04-24T14:41:07;4.30;;;1.10;;
39344;SDS011;25061;51.954;6.996;2023-04-24T14:43:35;9.30;;;2.45;;
39344;SDS011;25061;51.954;6.996;2023-04-24T14:46:04;4.53;;;1.52;;
39344;SDS011;25061;51.954;6.996;2023-04-24T14:48:30;6.32;;;1.30;;
39344;SDS011;25061;51.954;6.996;2023-04-24T14:50:55;5.88;;;1.45;;
39344;SDS011;25061;51.954;6.996;2023-04-24T14:53:21;11.60;;;2.92;;
39344;SDS011;25061;51.954;6.996;2023-04-24T14:55:46;5.38;;;1.63;;
39344;SDS011;25061;51.954;6.996;2023-04-24T14:58:12;4.00;;;1.40;;
39344;SDS011;25061;51.954;6.996;2023-04-24T15:00:39;5.20;;;1.63;;
39344;SDS011;25061;51.954;6.996;2023-04-24T15:03:05;5.97;;;1.40;;
39344;SDS011;25061;51.954;6.996;2023-04-24T15:05:30;5.00;;;1.17;;
39344;SDS011;25061;51.954;6.996;2023-04-24T15:07:56;6.63;;;1.27;;
39344;SDS011;25061;51.954;6.996;2023-04-24T15:10:22;5.30;;;1.10;;
39344;SDS011;25061;51.954;6.996;2023-04-24T15:12:48;5.75;;;1.40;;
39344;SDS011;25061;51.954;6.996;2023-04-24T15:15:14;4.47;;;1.40;;
39344;SDS011;25061;51.954;6.996;2023-04-24T15:17:41;8.10;;;1.92;;
39344;SDS011;25061;51.954;6.996;2023-04-24T15:20:08;5.65;;;1.20;;
39344;SDS011;25061;51.954;6.996;2023-04-24T15:22:34;7.03;;;1.70;;
39344;SDS011;25061;51.954;6.996;2023-04-24T15:25:00;5.20;;;1.20;;
39344;SDS011;25061;51.954;6.996;2023-04-24T15:27:38;6.50;;;2.03;;
39344;SDS011;25061;51.954;6.996;2023-04-24T15:30:05;8.77;;;2.42;;
39344;SDS011;25061;51.954;6.996;2023-04-24T15:32:32;6.65;;;1.73;;
39344;SDS011;25061;51.954;6.996;2023-04-24T15:34:57;7.78;;;1.80;;
39344;SDS011;25061;51.954;6.996;2023-04-24T15:37:23;6.70;;;1.67;;
39344;SDS011;25061;51.954;6.996;2023-04-24T15:39:49;6.55;;;1.83;;
39344;SDS011;25061;51.954;6.996;2023-04-24T15:42:15;9.25;;;3.28;;
39344;SDS011;25061;51.954;6.996;2023-04-24T15:44:42;7.05;;;2.22;;
39344;SDS011;25061;51.954;6.996;2023-04-24T15:47:08;5.47;;;1.90;;
39344;SDS011;25061;51.954;6.996;2023-04-24T15:49:34;7.78;;;1.65;;
39344;SDS011;25061;51.954;6.996;2023-04-24T15:51:59;9.40;;;1.58;;
39344;SDS011;25061;51.954;6.996;2023-04-24T15:54:25;7.30;;;1.50;;
39344;SDS011;25061;51.954;6.996;2023-04-24T15:56:51;8.20;;;1.55;;
39344;SDS011;25061;51.954;6.996;2023-04-24T15:59:18;8.93;;;1.98;;
39344;SDS011;25061;51.954;6.996;2023-04-24T16:01:44;6.43;;;1.63;;
39344;SDS011;25061;51.954;6.996;2023-04-24T16:04:11;7.07;;;1.40;;
39344;SDS011;25061;51.954;6.996;2023-04-24T16:06:37;9.60;;;2.28;;
39344;SDS011;25061;51.954;6.996;2023-04-24T16:09:04;11.65;;;2.70;;
39344;SDS011;25061;51.954;6.996;2023-04-24T16:11:30;8.20;;;1.60;;
39344;SDS011;25061;51.954;6.996;2023-04-24T16:14:01;7.03;;;1.77;;
39344;SDS011;25061;51.954;6.996;2023-04-24T16:16:26;7.88;;;2.13;;
39344;SDS011;25061;51.954;6.996;2023-04-24T16:18:52;6.25;;;1.40;;
39344;SDS011;25061;51.954;6.996;2023-04-24T16:21:18;7.15;;;1.67;;
39344;SDS011;25061;51.954;6.996;2023-04-24T16:23:44;9.05;;;1.52;;
39344;SDS011;25061;51.954;6.996;2023-04-24T16:26:10;8.07;;;1.65;;
39344;SDS011;25061;51.954;6.996;2023-04-24T16:28:36;6.43;;;1.65;;
39344;SDS011;25061;51.954;6.996;2023-04-24T16:31:02;6.20;;;1.35;;
39344;SDS011;25061;51.954;6.996;2023-04-24T16:33:28;9.30;;;1.85;;
39344;SDS011;25061;51.954;6.996;2023-04-24T16:35:54;9.57;;;1.73;;
39344;SDS011;25061;51.954;6.996;2023-04-24T16:38:20;6.68;;;1.77;;
39344;SDS011;25061;51.954;6.996;2023-04-24T16:40:46;7.53;;;1.92;;
39344;SDS011;25061;51.954;6.996;2023-04-24T16:43:11;8.90;;;2.63;;
39344;SDS011;25061;51.954;6.996;2023-04-24T16:45:37;8.52;;;1.80;;
39344;SDS011;25061;51.954;6.996;2023-04-24T16:48:04;8.23;;;2.55;;
39344;SDS011;25061;51.954;6.996;2023-04-24T16:50:30;8.23;;;1.83;;
39344;SDS011;25061;51.954;6.996;2023-04-24T16:52:55;8.48;;;2.10;;
39344;SDS011;25061;51.954;6.996;2023-04-24T16:55:21;8.05;;;2.28;;
39344;SDS011;25061;51.954;6.996;2023-04-24T16:57:49;8.55;;;1.83;;
39344;SDS011;25061;51.954;6.996;2023-04-24T17:00:19;8.15;;;2.05;;
39344;SDS011;25061;51.954;6.996;2023-04-24T17:02:46;6.05;;;1.50;;
39344;SDS011;25061;51.954;6.996;2023-04-24T17:05:14;7.68;;;1.75;;
39344;SDS011;25061;51.954;6.996;2023-04-24T17:07:39;8.00;;;2.50;;
39344;SDS011;25061;51.954;6.996;2023-04-24T17:10:06;14.52;;;6.28;;
39344;SDS011;25061;51.954;6.996;2023-04-24T17:12:35;13.43;;;5.38;;
39344;SDS011;25061;51.954;6.996;2023-04-24T17:15:02;19.45;;;6.20;;
39344;SDS011;25061;51.954;6.996;2023-04-24T17:17:28;12.70;;;3.60;;
39344;SDS011;25061;51.954;6.996;2023-04-24T17:19:53;26.88;;;6.07;;
39344;SDS011;25061;51.954;6.996;2023-04-24T17:22:24;15.10;;;4.22;;
39344;SDS011;25061;51.954;6.996;2023-04-24T17:24:50;20.27;;;4.20;;
39344;SDS011;25061;51.954;6.996;2023-04-24T17:27:16;22.17;;;5.55;;
39344;SDS011;25061;51.954;6.996;2023-04-24T17:29:42;19.77;;;6.32;;
39344;SDS011;25061;51.954;6.996;2023-04-24T17:32:11;9.35;;;2.60;;
39344;SDS011;25061;51.954;6.996;2023-04-24T17:34:38;11.05;;;2.10;;
39344;SDS011;25061;51.954;6.996;2023-04-24T17:37:03;5.88;;;1.80;;
39344;SDS011;25061;51.954;6.996;2023-04-24T17:39:29;9.93;;;2.22;;
39344;SDS011;25061;51.954;6.996;2023-04-24T17:41:56;9.13;;;2.03;;
39344;SDS011;25061;51.954;6.996;2023-04-24T17:44:26;11.35;;;2.10;;
39344;SDS011;25061;51.954;6.996;2023-04-24T17:46:51;9.13;;;2.10;;
39344;SDS011;25061;51.954;6.996;2023-04-24T17:49:17;10.50;;;2.10;;
39344;SDS011;25061;51.954;6.996;2023-04-24T17:51:42;7.82;;;1.90;;
39344;SDS011;25061;51.954;6.996;2023-04-24T17:54:08;8.95;;;1.92;;
39344;SDS011;25061;51.954;6.996;2023-04-24T17:56:35;8.63;;;2.10;;
39344;SDS011;25061;51.954;6.996;2023-04-24T17:59:02;8.68;;;2.00;;
39344;SDS011;25061;51.954;6.996;2023-04-24T18:01:27;10.07;;;2.63;;
39344;SDS011;25061;51.954;6.996;2023-04-24T18:03:53;8.63;;;2.20;;
39344;SDS011;25061;51.954;6.996;2023-04-24T18:06:20;11.95;;;3.90;;
39344;SDS011;25061;51.954;6.996;2023-04-24T18:08:46;11.73;;;2.58;;
39344;SDS011;25061;51.954;6.996;2023-04-24T18:11:11;8.75;;;2.17;;
39344;SDS011;25061;51.954;6.996;2023-04-24T18:13:38;11.20;;;2.45;;
39344;SDS011;25061;51.954;6.996;2023-04-24T18:16:05;7.95;;;2.40;;
39344;SDS011;25061;51.954;6.996;2023-04-24T18:18:32;8.38;;;2.60;;
39344;SDS011;25061;51.954;6.996;2023-04-24T18:20:59;10.48;;;2.55;;
39344;SDS011;25061;51.954;6.996;2023-04-24T18:23:24;10.88;;;2.47;;
39344;SDS011;25061;51.954;6.996;2023-04-24T18:25:51;10.80;;;2.53;;
39344;SDS011;25061;51.954;6.996;2023-04-24T18:28:16;10.30;;;2.58;;
39344;SDS011;25061;51.954;6.996;2023-04-24T18:30:42;14.18;;;2.75;;
39344;SDS011;25061;51.954;6.996;2023-04-24T18:33:08;9.30;;;2.08;;
39344;SDS011;25061;51.954;6.996;2023-04-24T18:35:36;7.90;;;2.10;;
39344;SDS011;25061;51.954;6.996;2023-04-24T18:38:02;11.80;;;2.40;;
39344;SDS011;25061;51.954;6.996;2023-04-24T18:40:28;8.63;;;2.10;;
39344;SDS011;25061;51.954;6.996;2023-04-24T18:42:55;9.30;;;2.67;;
39344;SDS011;25061;51.954;6.996;2023-04-24T18:45:20;11.25;;;2.80;;
39344;SDS011;25061;51.954;6.996;2023-04-24T18:47:46;10.90;;;3.22;;
39344;SDS011;25061;51.954;6.996;2023-04-24T18:50:12;9.57;;;2.53;;
39344;SDS011;25061;51.954;6.996;2023-04-24T18:52:39;9.90;;;2.45;;
39344;SDS011;25061;51.954;6.996;2023-04-24T18:55:06;11.52;;;3.22;;
39344;SDS011;25061;51.954;6.996;2023-04-24T18:57:33;10.18;;;2.92;;
39344;SDS011;25061;51.954;6.996;2023-04-24T18:59:59;12.05;;;2.78;;
39344;SDS011;25061;51.954;6.996;2023-04-24T19:02:24;13.18;;;3.25;;
39344;SDS011;25061;51.954;6.996;2023-04-24T19:04:50;12.02;;;3.63;;
39344;SDS011;25061;51.954;6.996;2023-04-24T19:07:16;11.80;;;2.85;;
39344;SDS011;25061;51.954;6.996;2023-04-24T19:09:43;11.30;;;2.88;;
39344;SDS011;25061;51.954;6.996;2023-04-24T19:12:09;9.75;;;2.88;;
39344;SDS011;25061;51.954;6.996;2023-04-24T19:14:35;12.32;;;2.42;;
39344;SDS011;25061;51.954;6.996;2023-04-24T19:17:00;11.55;;;3.03;;
39344;SDS011;25061;51.954;6.996;2023-04-24T19:19:26;9.63;;;2.47;;